Time;durP1;ratioP1;P1;durP2;ratioP2;P2;SDS_P1;SDS_P2;PMS_P1;PMS_P2;Temp;Humidity;BMP_temperature;BMP_pressure;BME280_temperature;BME280_humidity;BME280_pressure;Samples;Min_cycle;Max_cycle;Signal;HPM_P1;HPM_P2
2023/10/18 00:00:28;;;;;;;13.07;6.18;;;10.30;91.20;;;;;;5074912;28;20021;-84
2023/10/18 00:02:55;;;;;;;9.77;5.68;;;10.20;91.20;;;;;;5046809;28;20505;-84
2023/10/18 00:05:22;;;;;;;8.85;5.43;;;10.20;91.20;;;;;;5057890;28;20029;-84
2023/10/18 00:07:49;;;;;;;11.70;5.90;;;10.20;91.60;;;;;;5061942;28;20051;-85
2023/10/18 00:10:18;;;;;;;9.07;5.22;;;10.20;91.10;;;;;;5078715;28;20032;-84
2023/10/18 00:12:45;;;;;;;9.90;5.47;;;10.20;91.10;;;;;;5078781;28;20024;-84
2023/10/18 00:15:11;;;;;;;9.95;5.85;;;10.20;91.10;;;;;;5044525;28;20056;-84
2023/10/18 00:17:39;;;;;;;12.15;5.68;;;10.10;91.20;;;;;;5060861;28;20024;-84
2023/10/18 00:20:13;;;;;;;9.70;5.50;;;10.10;91.40;;;;;;5044575;28;20405;-84
2023/10/18 00:22:40;;;;;;;11.27;5.82;;;10.10;91.40;;;;;;5079318;28;20048;-84
2023/10/18 00:25:08;;;;;;;10.10;5.70;;;10.00;91.30;;;;;;5060966;28;20107;-84
2023/10/18 00:27:34;;;;;;;9.52;5.57;;;10.10;91.30;;;;;;5044923;28;20078;-84
2023/10/18 00:30:07;;;;;;;8.88;5.45;;;10.10;91.30;;;;;;5095131;28;20029;-84
2023/10/18 00:32:37;;;;;;;9.13;5.60;;;10.10;91.30;;;;;;5078795;28;20128;-84
2023/10/18 00:35:12;;;;;;;9.20;5.35;;;10.10;91.60;;;;;;5061866;28;20020;-84
2023/10/18 00:37:41;;;;;;;9.07;6.00;;;10.10;91.10;;;;;;5062272;28;20178;-84
2023/10/18 00:40:20;;;;;;;9.73;5.28;;;10.10;91.10;;;;;;5077645;28;20031;-84
2023/10/18 00:42:46;;;;;;;9.35;5.32;;;10.10;91.10;;;;;;5078091;28;20032;-84
2023/10/18 00:45:12;;;;;;;10.68;5.45;;;10.00;91.10;;;;;;5077727;28;20490;-84
2023/10/18 00:47:40;;;;;;;11.50;5.65;;;10.00;91.20;;;;;;5061387;28;20020;-84
2023/10/18 00:50:09;;;;;;;9.70;5.85;;;10.00;91.20;;;;;;5044806;28;20025;-84
2023/10/18 00:52:35;;;;;;;9.15;5.25;;;10.00;91.20;;;;;;5059871;28;20059;-84
2023/10/18 00:55:00;;;;;;;8.65;5.68;;;10.00;91.10;;;;;;5098208;28;20036;-84
2023/10/18 00:57:34;;;;;;;11.13;5.65;;;9.90;91.10;;;;;;5098402;28;20020;-84
2023/10/18 01:00:06;;;;;;;8.07;5.07;;;9.90;91.20;;;;;;5098202;28;20050;-84
2023/10/18 01:02:42;;;;;;;9.80;5.20;;;9.90;91.20;;;;;;5081961;28;20034;-84
2023/10/18 01:05:15;;;;;;;10.82;5.72;;;9.80;91.30;;;;;;5066557;28;20054;-84
2023/10/18 01:07:42;;;;;;;8.52;5.57;;;9.80;91.30;;;;;;5065468;28;20039;-84
2023/10/18 01:10:12;;;;;;;10.88;5.15;;;9.80;91.30;;;;;;5064318;28;20024;-85
2023/10/18 01:12:38;;;;;;;9.02;4.90;;;9.90;91.30;;;;;;5097641;28;20016;-84
2023/10/18 01:15:08;;;;;;;10.63;5.70;;;9.90;91.30;;;;;;5063834;28;20021;-84
2023/10/18 01:17:42;;;;;;;9.23;5.18;;;9.90;91.20;;;;;;5113733;28;20024;-84
2023/10/18 01:22:54;;;;;;;7.68;4.40;;;9.90;91.20;;;;;;5098544;28;20105;-85
2023/10/18 01:25:20;;;;;;;9.93;5.45;;;9.90;91.20;;;;;;5096658;28;20024;-85
2023/10/18 01:27:48;;;;;;;9.50;5.18;;;9.90;91.20;;;;;;5063084;28;20032;-85
2023/10/18 01:30:19;;;;;;;10.57;5.35;;;9.90;91.10;;;;;;5095915;28;20024;-82
2023/10/18 01:32:45;;;;;;;9.93;5.68;;;9.90;91.20;;;;;;5063500;28;20044;-82
2023/10/18 01:35:13;;;;;;;8.95;5.68;;;9.80;91.20;;;;;;5112949;28;20023;-82
2023/10/18 01:37:39;;;;;;;8.98;5.20;;;9.70;91.20;;;;;;5095576;28;20035;-82
2023/10/18 01:40:29;;;;;;;10.30;5.45;;;9.70;91.30;;;;;;5095763;28;20101;-83
2023/10/18 01:42:58;;;;;;;11.38;5.70;;;9.70;91.30;;;;;;5082098;28;20043;-82
2023/10/18 01:45:38;;;;;;;8.48;5.40;;;9.70;91.30;;;;;;5112812;28;20035;-83
2023/10/18 01:48:06;;;;;;;11.23;5.38;;;9.70;91.40;;;;;;5096295;28;20035;-83
2023/10/18 01:50:32;;;;;;;9.65;5.35;;;9.60;91.30;;;;;;5079025;28;20031;-83
2023/10/18 01:53:01;;;;;;;9.15;5.57;;;9.60;91.40;;;;;;5078645;28;20044;-83
2023/10/18 01:55:28;;;;;;;8.52;5.30;;;9.60;91.50;;;;;;5095868;28;20036;-82
2023/10/18 01:57:58;;;;;;;10.80;5.70;;;9.60;91.50;;;;;;5112663;28;20481;-82
2023/10/18 02:00:34;;;;;;;9.98;5.70;;;9.60;91.50;;;;;;5079300;28;20085;-82
2023/10/18 02:03:00;;;;;;;11.73;6.30;;;9.60;91.60;;;;;;5065229;28;20028;-82
2023/10/18 02:05:26;;;;;;;10.27;5.43;;;9.60;91.60;;;;;;5062061;28;20100;-82
2023/10/18 02:07:55;;;;;;;10.88;6.22;;;9.50;91.50;;;;;;5095455;28;20063;-82
2023/10/18 02:10:22;;;;;;;9.60;5.65;;;9.50;91.60;;;;;;5112182;28;20032;-82
2023/10/18 02:12:47;;;;;;;9.07;5.43;;;9.60;91.60;;;;;;5061689;28;20024;-82
2023/10/18 02:15:15;;;;;;;9.82;5.43;;;9.50;91.60;;;;;;5061842;28;20473;-83
2023/10/18 02:17:45;;;;;;;9.10;5.18;;;9.50;91.60;;;;;;5077915;28;20024;-82
2023/10/18 02:20:25;;;;;;;10.48;5.80;;;9.40;91.60;;;;;;5096129;28;20024;-82
2023/10/18 02:22:53;;;;;;;10.32;5.57;;;9.40;91.70;;;;;;5096452;28;20032;-82
2023/10/18 02:25:42;;;;;;;10.40;5.00;;;9.40;91.80;;;;;;5095126;28;20530;-82
2023/10/18 02:28:22;;;;;;;10.25;5.65;;;9.40;91.80;;;;;;5067254;28;20024;-82
2023/10/18 02:30:57;;;;;;;8.73;5.30;;;9.50;91.70;;;;;;5095710;28;20028;-83
2023/10/18 02:33:34;;;;;;;8.82;5.15;;;9.50;91.70;;;;;;5111441;28;20557;-83
2023/10/18 02:36:05;;;;;;;10.52;5.28;;;9.50;91.60;;;;;;5078564;28;20108;-83
2023/10/18 02:38:30;;;;;;;11.38;5.53;;;9.40;91.60;;;;;;5062512;28;20039;-83
2023/10/18 02:40:57;;;;;;;10.65;5.68;;;9.40;91.70;;;;;;5094382;28;20036;-83
2023/10/18 02:43:23;;;;;;;10.82;5.50;;;9.30;91.60;;;;;;5094682;28;20032;-83
2023/10/18 02:45:52;;;;;;;9.35;5.70;;;9.30;91.70;;;;;;5078456;28;20363;-82
2023/10/18 02:48:23;;;;;;;17.25;5.88;;;9.30;91.60;;;;;;5111964;28;20558;-82
2023/10/18 02:50:51;;;;;;;10.23;5.63;;;9.20;91.70;;;;;;5097039;28;20450;-82
2023/10/18 02:53:17;;;;;;;8.90;5.30;;;9.20;91.70;;;;;;5116021;28;20538;-82
2023/10/18 02:55:55;;;;;;;9.55;5.25;;;9.20;91.70;;;;;;5081360;28;20031;-82
2023/10/18 02:58:33;;;;;;;10.02;5.32;;;9.30;91.70;;;;;;5097825;28;20385;-82
2023/10/18 03:01:05;;;;;;;9.00;4.95;;;9.20;91.70;;;;;;5084342;28;20035;-83
2023/10/18 03:03:33;;;;;;;;;;;9.20;91.70;;;;;;5082610;28;20511;-83
2023/10/18 03:06:06;;;;;;;9.90;5.38;;;9.10;91.70;;;;;;5114238;28;19908;-82
2023/10/18 03:08:33;;;;;;;7.68;5.03;;;9.10;91.80;;;;;;5081679;28;20039;-83
2023/10/18 03:11:02;;;;;;;10.20;4.80;;;9.00;92.00;;;;;;5097727;28;20042;-82
2023/10/18 03:13:28;;;;;;;9.70;5.20;;;9.00;91.90;;;;;;5098237;28;20032;-82
2023/10/18 03:18:52;;;;;;;10.23;5.20;;;9.10;92.10;;;;;;5070649;28;20027;-82
2023/10/18 03:21:22;;;;;;;9.50;5.35;;;9.00;91.80;;;;;;5097596;28;20028;-83
2023/10/18 03:23:51;;;;;;;10.60;5.47;;;9.00;91.90;;;;;;5097358;28;20031;-82
2023/10/18 03:26:35;;;;;;;11.75;6.13;;;9.00;91.90;;;;;;5114481;28;20047;-82
2023/10/18 03:29:11;;;;;;;10.68;5.40;;;9.00;91.90;;;;;;5097182;28;20030;-82
2023/10/18 03:31:41;;;;;;;8.52;5.10;;;8.90;91.90;;;;;;5115951;28;20055;-83
2023/10/18 03:34:19;;;;;;;9.77;5.18;;;8.90;91.90;;;;;;5097764;28;20394;-82
2023/10/18 03:36:49;;;;;;;8.88;4.60;;;9.00;92.00;;;;;;5097513;28;20076;-82
2023/10/18 03:39:24;;;;;;;10.35;5.15;;;9.00;91.90;;;;;;5098437;28;20085;-82
2023/10/18 03:41:51;;;;;;;12.90;6.03;;;9.00;92.00;;;;;;5099778;28;20578;-82
2023/10/18 03:44:32;;;;;;;9.30;4.82;;;9.00;92.00;;;;;;5101598;28;20023;-82
2023/10/18 03:47:04;;;;;;;9.80;5.13;;;9.00;92.00;;;;;;5104085;28;20035;-82
2023/10/18 03:54:44;;;;;;;11.77;5.60;;;8.90;92.30;;;;;;5102265;28;20027;-82
2023/10/18 03:57:15;;;;;;;9.52;4.80;;;9.00;91.90;;;;;;5088073;28;20024;-82
2023/10/18 03:59:45;;;;;;;10.30;5.32;;;9.00;92.00;;;;;;5086595;28;20119;-82
2023/10/18 04:04:50;;;;;;;10.82;5.32;;;8.90;92.00;;;;;;5102775;28;20031;-82
2023/10/18 04:07:17;;;;;;;10.13;5.03;;;8.80;92.10;;;;;;5100351;28;20031;-83
2023/10/18 04:12:29;;;;;;;8.55;4.55;;;8.80;92.10;;;;;;5119566;28;20422;-83
2023/10/18 04:15:11;;;;;;;11.65;4.95;;;8.90;92.10;;;;;;5084310;28;20031;-82
2023/10/18 04:17:39;;;;;;;11.38;5.80;;;8.80;92.00;;;;;;5100083;28;20055;-82
2023/10/18 04:20:22;;;;;;;11.52;5.43;;;8.80;92.10;;;;;;5084093;28;20062;-82
2023/10/18 04:22:50;;;;;;;12.40;4.88;;;8.80;92.20;;;;;;5086103;28;20036;-83
2023/10/18 04:25:26;;;;;;;10.75;5.80;;;8.80;92.20;;;;;;5083133;28;20020;-83
2023/10/18 04:27:57;;;;;;;11.98;5.47;;;8.80;92.10;;;;;;5101696;28;20038;-83
2023/10/18 04:30:23;;;;;;;12.40;4.90;;;8.70;92.20;;;;;;5100112;28;20139;-83
2023/10/18 04:35:44;;;;;;;9.95;5.00;;;8.70;92.70;;;;;;5118826;28;20508;-83
2023/10/18 04:38:22;;;;;;;9.18;5.65;;;8.70;92.60;;;;;;5084219;28;20030;-82
2023/10/18 04:43:32;;;;;;;12.30;5.85;;;8.60;92.40;;;;;;5101355;28;20027;-83
2023/10/18 04:46:01;;;;;;;10.70;5.55;;;8.60;92.50;;;;;;5100776;28;20028;-82
2023/10/18 04:51:26;;;;;;;8.43;4.85;;;8.60;92.50;;;;;;5102537;28;20566;-83
2023/10/18 04:54:00;;;;;;;11.52;5.38;;;8.60;92.50;;;;;;5101943;28;20059;-83
2023/10/18 04:56:37;;;;;;;11.38;5.43;;;8.60;92.50;;;;;;5084909;28;20024;-83
2023/10/18 04:59:11;;;;;;;8.60;4.53;;;8.60;92.60;;;;;;5099448;28;20085;-83
2023/10/18 05:01:42;;;;;;;8.75;4.47;;;8.60;92.40;;;;;;5099437;28;20469;-83
2023/10/18 05:06:59;;;;;;;10.75;4.80;;;8.60;92.50;;;;;;5117958;28;20038;-82
2023/10/18 05:09:34;;;;;;;9.23;5.35;;;8.60;92.40;;;;;;5083437;28;20116;-82
2023/10/18 05:12:15;;;;;;;9.43;5.15;;;8.60;92.40;;;;;;5118413;28;20065;-83
2023/10/18 05:14:42;;;;;;;10.77;5.35;;;8.60;92.30;;;;;;5118709;27;20109;-83
2023/10/18 05:17:21;;;;;;;9.00;4.95;;;8.50;92.50;;;;;;5138016;27;20023;-83
2023/10/18 05:19:49;;;;;;;13.63;5.93;;;8.50;92.50;;;;;;5123886;27;20024;-83
2023/10/18 05:22:20;;;;;;;11.57;5.88;;;8.50;92.50;;;;;;5105056;27;20027;-83
2023/10/18 05:27:35;;;;;;;9.77;5.22;;;8.50;92.60;;;;;;5126091;27;20033;-81
2023/10/18 05:30:08;;;;;;;11.55;5.95;;;8.50;92.50;;;;;;5105047;27;20043;-81
2023/10/18 05:32:39;;;;;;;9.80;5.28;;;8.50;92.50;;;;;;5105666;27;20034;-81
2023/10/18 05:43:03;;;;;;;10.73;5.32;;;8.50;92.50;;;;;;5137155;27;20053;-81
2023/10/18 05:45:33;;;;;;;9.75;5.32;;;8.50;92.60;;;;;;5101969;27;20385;-82
2023/10/18 05:48:03;;;;;;;10.90;4.93;;;8.50;92.50;;;;;;5139516;27;20491;-81
2023/10/18 05:50:34;;;;;;;10.10;5.40;;;8.50;92.50;;;;;;5122365;27;20080;-84
2023/10/18 05:53:06;;;;;;;9.52;4.93;;;8.50;92.40;;;;;;5105326;27;20042;-84
2023/10/18 05:55:33;;;;;;;11.25;5.63;;;8.50;92.30;;;;;;5091890;27;20450;-84
2023/10/18 05:58:04;;;;;;;11.15;5.28;;;8.40;92.30;;;;;;5123483;27;20100;-84
2023/10/18 06:00:33;;;;;;;12.93;5.80;;;8.50;92.30;;;;;;5088578;27;20027;-83
2023/10/18 06:02:59;;;;;;;9.90;5.45;;;8.50;92.30;;;;;;5085949;28;20100;-84
2023/10/18 06:05:33;;;;;;;11.30;5.80;;;8.50;92.40;;;;;;5102270;27;20127;-84
2023/10/18 06:07:59;;;;;;;10.10;4.43;;;8.50;92.30;;;;;;5103066;27;20385;-85
2023/10/18 06:10:26;;;;;;;11.77;5.45;;;8.50;92.30;;;;;;5119252;27;20030;-84
2023/10/18 06:13:10;;;;;;;9.27;5.28;;;8.50;92.30;;;;;;5102205;27;20030;-84
2023/10/18 06:15:38;;;;;;;9.70;5.20;;;8.40;92.30;;;;;;5120041;27;20050;-85
2023/10/18 06:18:09;;;;;;;9.50;4.85;;;8.40;92.30;;;;;;5137872;27;20015;-84
2023/10/18 06:20:38;;;;;;;10.38;4.82;;;8.40;92.40;;;;;;5120497;27;20031;-85
2023/10/18 06:23:09;;;;;;;10.27;5.43;;;8.40;92.50;;;;;;5087180;27;20024;-84
2023/10/18 06:25:38;;;;;;;10.27;5.18;;;8.40;92.50;;;;;;5087785;27;20051;-84
2023/10/18 06:28:07;;;;;;;12.23;5.10;;;8.40;92.50;;;;;;5126074;27;20047;-84
2023/10/18 06:30:42;;;;;;;11.90;5.55;;;8.50;92.50;;;;;;5093017;27;20038;-84
2023/10/18 06:33:15;;;;;;;10.68;5.20;;;8.50;92.50;;;;;;5126721;27;20031;-83
2023/10/18 06:35:43;;;;;;;10.60;5.78;;;8.50;92.40;;;;;;5095137;27;20035;-85
2023/10/18 06:38:10;;;;;;;9.85;5.35;;;8.50;92.40;;;;;;5094887;27;20110;-85
2023/10/18 06:41:00;;;;;;;9.80;5.03;;;8.50;92.40;;;;;;5111883;27;20476;-84
2023/10/18 06:43:26;;;;;;;10.98;5.40;;;8.50;92.40;;;;;;5116220;27;20053;-84
2023/10/18 06:45:54;;;;;;;8.57;4.57;;;8.50;92.30;;;;;;5128087;27;20464;-84
2023/10/18 06:48:22;;;;;;;8.88;3.97;;;8.50;92.30;;;;;;5144774;27;20031;-84
2023/10/18 06:51:10;;;;;;;12.68;5.65;;;8.40;92.40;;;;;;5111532;27;20407;-84
2023/10/18 06:53:54;;;;;;;9.60;4.32;;;8.40;92.50;;;;;;5108984;27;20043;-83
2023/10/18 06:56:26;;;;;;;12.48;6.18;;;8.50;92.40;;;;;;5125666;27;20061;-85
2023/10/18 06:58:53;;;;;;;9.23;4.93;;;8.50;92.40;;;;;;5114460;27;20007;-85
2023/10/18 07:01:30;;;;;;;10.75;5.28;;;8.50;92.40;;;;;;5106212;27;20404;-85
2023/10/18 07:04:00;;;;;;;8.63;4.90;;;8.40;92.60;;;;;;5124918;27;20027;-86
2023/10/18 07:06:29;;;;;;;9.18;5.00;;;8.50;92.60;;;;;;5105198;27;20086;-85
2023/10/18 07:08:56;;;;;;;11.70;6.25;;;8.50;92.50;;;;;;5089402;27;20019;-87
2023/10/18 07:11:23;;;;;;;9.27;4.90;;;8.50;92.70;;;;;;5105824;27;20480;-87
2023/10/18 07:13:53;;;;;;;14.10;6.00;;;8.50;92.70;;;;;;5105864;27;20015;-86
2023/10/18 07:16:54;;;;;;;12.52;5.90;;;8.50;92.50;;;;;;5106215;27;20038;-87
2023/10/18 07:19:29;;;;;;;9.88;4.95;;;8.50;92.50;;;;;;5122738;27;20031;-86
2023/10/18 07:21:58;;;;;;;9.43;5.72;;;8.50;92.50;;;;;;5121801;27;20020;-86
2023/10/18 07:24:36;;;;;;;8.57;5.22;;;8.60;92.60;;;;;;5105555;28;20030;-87
2023/10/18 07:27:09;;;;;;;8.50;4.68;;;8.60;92.60;;;;;;5140084;27;20026;-87
2023/10/18 07:29:37;;;;;;;10.05;4.53;;;8.60;92.50;;;;;;5105608;28;20038;-86
2023/10/18 07:32:06;;;;;;;12.23;5.22;;;8.60;92.50;;;;;;5122549;27;20122;-87
2023/10/18 07:34:36;;;;;;;9.95;5.03;;;8.70;92.50;;;;;;5088901;27;20118;-87
2023/10/18 07:37:17;;;;;;;8.35;4.82;;;8.70;92.20;;;;;;5105655;28;20465;-82
2023/10/18 07:39:48;;;;;;;10.75;5.07;;;8.70;92.50;;;;;;5102974;28;20161;-82
2023/10/18 07:42:18;;;;;;;8.95;4.70;;;8.70;92.30;;;;;;5117376;28;20433;-82
2023/10/18 07:44:46;;;;;;;11.02;5.28;;;8.80;92.30;;;;;;5117068;28;20025;-82
2023/10/18 07:47:17;;;;;;;10.55;4.95;;;8.80;92.30;;;;;;5099803;28;20043;-82
2023/10/18 07:49:45;;;;;;;10.32;5.10;;;8.80;92.30;;;;;;5101450;28;20031;-82
2023/10/18 07:52:15;;;;;;;8.93;5.13;;;8.80;92.20;;;;;;5100951;28;20043;-82
2023/10/18 07:54:41;;;;;;;7.72;4.40;;;8.80;92.30;;;;;;5116986;28;20034;-82
2023/10/18 07:57:15;;;;;;;7.75;4.57;;;8.90;92.30;;;;;;5099849;28;20501;-82
2023/10/18 07:59:46;;;;;;;11.70;5.28;;;8.90;92.20;;;;;;5100645;28;20024;-82
2023/10/18 08:02:13;;;;;;;9.60;5.15;;;8.90;92.10;;;;;;5101369;28;20058;-82
2023/10/18 08:04:42;;;;;;;9.50;4.93;;;9.00;91.80;;;;;;5116371;28;20054;-82
2023/10/18 08:07:12;;;;;;;10.00;5.05;;;9.00;91.90;;;;;;5117185;28;20019;-83
2023/10/18 08:09:42;;;;;;;8.70;4.65;;;9.10;91.90;;;;;;5116547;28;20023;-82
2023/10/18 08:12:20;;;;;;;8.38;4.45;;;9.10;92.00;;;;;;5099796;28;20031;-82
2023/10/18 08:14:50;;;;;;;8.68;4.47;;;9.20;91.90;;;;;;5101364;28;20019;-81
2023/10/18 08:17:42;;;;;;;7.95;4.38;;;9.20;91.50;;;;;;5117706;28;20472;-82
2023/10/18 08:22:50;;;;;;;9.82;4.07;;;9.40;91.40;;;;;;5118841;28;19907;-82
2023/10/18 08:25:31;;;;;;;9.25;4.90;;;9.40;91.60;;;;;;5115948;28;20026;-82
2023/10/18 08:32:14;;;;;;;9.07;4.60;;;9.50;91.70;;;;;;5109155;27;20043;-81
2023/10/18 08:35:16;;;;;;;;;;;;;;;;;;;;;
2023/10/18 08:37:33;;;;;;;8.10;4.63;;;9.60;91.50;;;;;;5140516;27;20067;-80
2023/10/18 08:43:48;;;;;;;10.57;4.97;;;9.60;91.20;;;;;;5144253;27;20088;-80
2023/10/18 08:49:23;;;;;;;8.27;4.72;;;9.80;90.50;;;;;;5215155;22;20399;-74
2023/10/18 08:52:04;;;;;;;9.82;4.13;;;9.80;90.70;;;;;;5076011;28;20045;-74
2023/10/18 08:54:31;;;;;;;10.30;4.68;;;9.80;90.60;;;;;;5058414;28;20036;-74
2023/10/18 08:56:58;;;;;;;7.20;4.40;;;9.90;90.70;;;;;;5058203;28;20029;-73
2023/10/18 08:59:24;;;;;;;12.93;4.47;;;9.90;90.50;;;;;;5075875;28;20060;-73
2023/10/18 09:05:14;;;;;;;7.50;4.22;;;10.00;90.40;;;;;;5075903;28;20036;-74
2023/10/18 09:07:44;;;;;;;9.63;5.20;;;10.20;90.00;;;;;;5058014;28;20036;-74
2023/10/18 09:10:13;;;;;;;10.90;4.35;;;10.20;89.50;;;;;;5041814;28;20112;-74
2023/10/18 09:19:11;;;;;;;10.00;5.07;;;10.50;88.60;;;;;;4995376;28;20050;-73
2023/10/18 09:21:47;;;;;;;;;;;10.60;88.30;;;;;;4995554;28;20033;-73
2023/10/18 09:24:14;;;;;;;9.00;4.50;;;10.50;87.80;;;;;;5072499;28;19928;-74
2023/10/18 09:26:43;;;;;;;7.90;4.50;;;10.60;89.10;;;;;;5057844;28;20029;-74
2023/10/18 09:29:10;;;;;;;8.63;4.70;;;10.60;88.70;;;;;;5057612;28;20080;-74
2023/10/18 09:35:08;;;;;;;14.70;5.50;;;10.70;88.80;;;;;;5075296;28;20028;-74
2023/10/18 09:38:12;;;;;;;10.18;4.90;;;10.70;88.20;;;;;;5057244;28;20024;-73
2023/10/18 09:40:47;;;;;;;10.55;4.53;;;10.80;89.10;;;;;;5073726;28;20041;-73
2023/10/18 09:43:16;;;;;;;10.77;4.68;;;10.80;88.40;;;;;;5074980;28;20021;-73
2023/10/18 09:45:45;;;;;;;9.88;4.82;;;10.80;88.70;;;;;;5074960;28;20021;-74
2023/10/18 09:48:12;;;;;;;10.10;4.63;;;10.90;88.10;;;;;;5074950;28;20056;-73
2023/10/18 09:50:41;;;;;;;6.88;4.15;;;10.90;88.20;;;;;;5053354;28;20114;-74
2023/10/18 09:53:13;;;;;;;8.95;5.00;;;10.90;88.10;;;;;;5053778;28;20064;-74
2023/10/18 09:55:42;;;;;;;10.80;5.13;;;11.00;88.00;;;;;;5055046;28;20021;-76
2023/10/18 09:58:18;;;;;;;10.63;5.38;;;11.10;88.10;;;;;;5054845;28;20045;-75
2023/10/18 10:03:56;;;;;;;10.70;5.50;;;11.30;87.40;;;;;;5053641;28;20458;-75
2023/10/18 10:06:28;;;;;;;9.48;5.00;;;11.40;86.90;;;;;;5037396;28;20017;-76
2023/10/18 10:09:08;;;;;;;10.35;5.10;;;11.50;87.70;;;;;;5054610;28;20029;-75
2023/10/18 10:11:36;;;;;;;10.07;4.90;;;11.60;87.00;;;;;;5053551;28;20542;-75
2023/10/18 10:14:07;;;;;;;9.48;5.10;;;11.70;86.20;;;;;;5054480;28;20021;-75
2023/10/18 10:16:34;;;;;;;8.43;4.90;;;11.80;85.90;;;;;;5037407;28;20024;-75
2023/10/18 10:19:04;;;;;;;9.27;4.60;;;11.80;86.00;;;;;;5053397;28;20028;-75
2023/10/18 10:21:39;;;;;;;10.13;4.93;;;11.90;85.20;;;;;;5054377;28;20032;-75
2023/10/18 10:24:35;;;;;;;8.98;5.05;;;12.00;86.00;;;;;;5053825;28;20029;-75
2023/10/18 10:27:28;;;;;;;9.10;5.47;;;12.10;84.90;;;;;;5053816;28;20068;-74
2023/10/18 10:30:25;;;;;;;7.85;4.55;;;12.20;84.00;;;;;;5041360;28;20053;-75
2023/10/18 10:32:53;;;;;;;8.55;4.75;;;12.20;84.80;;;;;;5053029;28;20017;-75
2023/10/18 10:36:02;;;;;;;6.70;3.80;;;12.30;85.40;;;;;;5053859;28;20037;-76
2023/10/18 10:38:29;;;;;;;9.02;4.72;;;12.30;83.90;;;;;;5052285;28;20361;-76
2023/10/18 10:41:31;;;;;;;9.27;4.93;;;12.40;85.10;;;;;;5052855;28;20048;-75
2023/10/18 10:44:06;;;;;;;10.70;5.43;;;12.40;84.10;;;;;;5048245;28;20030;-75
2023/10/18 10:46:39;;;;;;;10.70;4.93;;;12.60;83.40;;;;;;5053898;28;20256;-76
2023/10/18 10:49:59;;;;;;;9.93;5.10;;;12.60;85.10;;;;;;5056361;28;20072;-75
2023/10/18 10:52:40;;;;;;;7.97;4.57;;;12.70;84.90;;;;;;5020796;28;20052;-75
2023/10/18 10:55:28;;;;;;;8.70;5.00;;;12.70;82.60;;;;;;5058262;28;20025;-76
2023/10/18 10:57:55;;;;;;;8.13;4.90;;;12.70;84.30;;;;;;5073822;28;20021;-76
2023/10/18 11:00:22;;;;;;;11.50;5.32;;;12.80;83.30;;;;;;5073692;28;20063;-76
2023/10/18 11:02:53;;;;;;;10.65;5.03;;;12.80;83.40;;;;;;5039453;28;20022;-75
2023/10/18 11:05:24;;;;;;;13.32;5.20;;;12.90;83.60;;;;;;5073605;28;20036;-76
2023/10/18 11:07:53;;;;;;;12.43;4.82;;;13.00;84.00;;;;;;5039788;28;20021;-74
2023/10/18 11:10:19;;;;;;;11.23;4.85;;;13.10;83.50;;;;;;5055811;28;20025;-75
2023/10/18 11:12:45;;;;;;;9.90;5.05;;;13.10;83.40;;;;;;5073425;28;20025;-75
2023/10/18 11:15:17;;;;;;;9.40;4.53;;;13.20;84.70;;;;;;5056104;28;20032;-75
2023/10/18 11:17:48;;;;;;;9.25;4.90;;;13.30;83.50;;;;;;5040150;28;20037;-76
2023/10/18 11:20:24;;;;;;;10.93;5.88;;;13.40;82.00;;;;;;5073354;28;20577;-76
2023/10/18 11:22:50;;;;;;;8.98;5.45;;;13.50;83.00;;;;;;5055709;28;20033;-76
2023/10/18 11:25:20;;;;;;;9.55;5.35;;;13.50;82.70;;;;;;5055716;28;20024;-76
2023/10/18 11:27:46;;;;;;;12.73;5.55;;;13.50;83.30;;;;;;5073196;28;20036;-76
2023/10/18 11:30:16;;;;;;;9.13;5.22;;;13.70;83.40;;;;;;5055736;28;20025;-76
2023/10/18 11:32:48;;;;;;;12.13;5.47;;;13.70;82.90;;;;;;5056194;28;20021;-76
2023/10/18 11:35:48;;;;;;;10.10;5.70;;;13.80;83.20;;;;;;5073080;28;20078;-76
2023/10/18 11:38:14;;;;;;;9.80;5.45;;;13.80;83.00;;;;;;5058157;28;20045;-76
2023/10/18 11:40:43;;;;;;;9.07;5.07;;;13.90;83.20;;;;;;5055486;28;20025;-76
2023/10/18 11:43:10;;;;;;;9.52;5.35;;;13.90;82.70;;;;;;5073002;28;20036;-76
2023/10/18 11:45:40;;;;;;;9.82;5.28;;;14.00;82.30;;;;;;5055301;28;20388;-76
2023/10/18 11:48:09;;;;;;;9.90;4.82;;;14.00;82.70;;;;;;5073209;28;20029;-76
2023/10/18 11:50:39;;;;;;;12.25;5.90;;;14.10;83.40;;;;;;5072699;28;20045;-77
2023/10/18 11:53:12;;;;;;;8.55;5.55;;;14.20;82.40;;;;;;5055684;28;20025;-76
2023/10/18 11:55:57;;;;;;;13.77;5.35;;;14.20;82.40;;;;;;5072902;28;20025;-76
2023/10/18 11:58:25;;;;;;;8.88;5.10;;;14.20;81.30;;;;;;5055213;28;20013;-77
2023/10/18 12:01:00;;;;;;;10.48;5.63;;;14.20;81.60;;;;;;5072939;28;20042;-75
2023/10/18 12:03:33;;;;;;;11.43;5.82;;;14.30;80.80;;;;;;5076549;28;20020;-75
2023/10/18 12:06:00;;;;;;;;;;;14.30;82.10;;;;;;5059738;28;20028;-75
2023/10/18 12:08:30;;;;;;;11.48;5.40;;;14.40;81.30;;;;;;5059206;28;19905;-77
2023/10/18 12:11:04;;;;;;;8.50;5.50;;;14.40;81.40;;;;;;5043161;28;20066;-75
2023/10/18 12:13:30;;;;;;;9.70;5.50;;;14.50;82.50;;;;;;5076887;28;20021;-74
2023/10/18 12:16:00;;;;;;;10.57;5.15;;;14.50;80.50;;;;;;5059002;28;20435;-75
2023/10/18 12:18:32;;;;;;;8.48;5.18;;;14.60;81.20;;;;;;5060059;28;20032;-75
2023/10/18 12:20:57;;;;;;;11.88;5.45;;;14.60;80.30;;;;;;5076552;28;20025;-74
2023/10/18 12:23:25;;;;;;;10.38;6.25;;;14.70;80.90;;;;;;5076710;28;20031;-74
2023/10/18 12:25:50;;;;;;;10.20;5.15;;;14.70;79.60;;;;;;5076687;28;20039;-74
2023/10/18 12:28:27;;;;;;;11.65;5.20;;;14.80;80.10;;;;;;5042272;28;20075;-75
2023/10/18 12:30:55;;;;;;;9.25;5.22;;;14.80;81.20;;;;;;5060493;28;20450;-74
2023/10/18 12:33:25;;;;;;;9.52;4.78;;;14.80;80.20;;;;;;5076360;28;20044;-75
2023/10/18 12:35:51;;;;;;;9.63;5.20;;;14.80;81.20;;;;;;5026534;28;20025;-74
2023/10/18 12:38:26;;;;;;;8.95;4.57;;;14.80;80.60;;;;;;5058146;28;20548;-75
2023/10/18 12:40:54;;;;;;;7.65;5.28;;;14.80;81.00;;;;;;5076426;28;20025;-75
2023/10/18 12:43:21;;;;;;;10.98;5.18;;;14.70;79.80;;;;;;5076223;28;20017;-76
2023/10/18 12:45:52;;;;;;;10.55;5.50;;;14.70;80.00;;;;;;5042140;28;20059;-76
2023/10/18 12:48:27;;;;;;;11.68;6.18;;;14.70;81.10;;;;;;5076107;28;20025;-76
2023/10/18 12:50:54;;;;;;;9.13;5.57;;;14.70;81.50;;;;;;5054901;28;20037;-77
2023/10/18 12:56:23;;;;;;;7.32;5.43;;;14.70;81.40;;;;;;5055264;28;20033;-76
2023/10/18 12:59:37;;;;;;;8.18;4.82;;;14.70;80.90;;;;;;5055732;28;20030;-75
2023/10/18 13:04:07;;;;;;;10.43;4.70;;;14.80;81.90;;;;;;5054947;28;20036;-75
2023/10/18 13:06:41;;;;;;;10.68;5.38;;;14.90;81.00;;;;;;5038822;28;20032;-74
2023/10/18 13:14:31;;;;;;;8.63;5.03;;;15.00;79.80;;;;;;5055359;28;20033;-74
2023/10/18 13:16:56;;;;;;;11.07;5.57;;;15.00;80.50;;;;;;5055095;28;20034;-75
2023/10/18 13:19:25;;;;;;;8.45;5.10;;;15.10;79.80;;;;;;5038102;28;20049;-74
2023/10/18 13:21:51;;;;;;;9.48;4.85;;;15.10;80.50;;;;;;5054472;28;20024;-75
2023/10/18 13:26:52;;;;;;;7.97;4.73;;;15.30;78.80;;;;;;5054717;28;20030;-75
2023/10/18 13:31:50;;;;;;;7.20;4.53;;;16.00;77.80;;;;;;5038326;28;20034;-75
2023/10/18 13:34:19;;;;;;;7.75;4.95;;;16.30;76.60;;;;;;5055268;28;20021;-76
2023/10/18 13:36:45;;;;;;;8.00;4.45;;;16.50;75.10;;;;;;5055261;28;20562;-75
2023/10/18 13:39:11;;;;;;;7.47;4.65;;;16.60;75.40;;;;;;5055195;28;20029;-75
2023/10/18 13:41:39;;;;;;;8.00;4.63;;;16.80;74.90;;;;;;5037708;28;20026;-75
2023/10/18 13:44:04;;;;;;;8.90;4.50;;;16.90;73.20;;;;;;5054114;28;20049;-75
2023/10/18 13:46:30;;;;;;;8.10;4.38;;;16.80;74.00;;;;;;5037518;28;20028;-75
2023/10/18 13:48:56;;;;;;;9.60;4.78;;;16.70;73.70;;;;;;5055012;28;20069;-75
2023/10/18 13:51:22;;;;;;;7.82;4.40;;;16.60;74.00;;;;;;5053865;28;20057;-75
2023/10/18 13:53:48;;;;;;;8.13;4.40;;;16.50;75.30;;;;;;5054907;28;20112;-75
2023/10/18 13:56:15;;;;;;;7.13;4.68;;;16.60;75.90;;;;;;5053923;28;20030;-75
2023/10/18 13:58:43;;;;;;;9.90;4.80;;;16.50;74.50;;;;;;5053924;28;20024;-75
2023/10/18 14:01:22;;;;;;;8.93;5.45;;;16.50;74.70;;;;;;5021270;28;20022;-75
2023/10/18 14:03:49;;;;;;;8.50;4.55;;;16.50;74.30;;;;;;5053863;28;20029;-75
2023/10/18 14:06:15;;;;;;;7.13;4.32;;;16.60;75.50;;;;;;5054707;28;20057;-75
2023/10/18 14:08:44;;;;;;;7.18;4.30;;;16.50;75.20;;;;;;5054703;28;20033;-75
2023/10/18 14:11:13;;;;;;;7.43;4.25;;;16.40;74.50;;;;;;5053530;28;20544;-75
2023/10/18 14:13:42;;;;;;;6.63;4.75;;;16.20;75.20;;;;;;5054515;28;20025;-75
2023/10/18 14:16:12;;;;;;;7.03;4.63;;;16.10;76.20;;;;;;5053638;28;20051;-75
2023/10/18 14:18:40;;;;;;;7.30;4.78;;;16.00;76.40;;;;;;5053582;28;20062;-75
2023/10/18 14:21:12;;;;;;;8.15;4.70;;;15.80;77.50;;;;;;5053478;28;20030;-75
2023/10/18 14:23:39;;;;;;;9.48;4.47;;;15.70;78.00;;;;;;5037865;28;20029;-75
2023/10/18 14:26:05;;;;;;;8.23;4.47;;;15.60;78.20;;;;;;5052698;28;20055;-75
2023/10/18 14:28:32;;;;;;;8.45;4.55;;;15.50;78.80;;;;;;5036756;28;20034;-75
2023/10/18 14:30:59;;;;;;;6.53;4.10;;;15.50;78.90;;;;;;5053191;28;20106;-75
2023/10/18 14:33:28;;;;;;;7.13;4.07;;;15.50;79.30;;;;;;5036922;28;20022;-75
2023/10/18 14:35:54;;;;;;;8.98;5.13;;;15.40;79.80;;;;;;5020541;28;20038;-75